createdAt,value
2017-01-05T00:00:36.492Z,0
2017-01-05T00:02:02.285Z,0
2017-01-05T00:03:16.628Z,0
2017-01-05T00:04:31.171Z,0
2017-01-05T00:05:45.467Z,0
2017-01-05T00:06:59.597Z,0
2017-01-05T00:08:15.613Z,0
2017-01-05T00:09:30.835Z,0
2017-01-05T00:10:47.859Z,0
2017-01-05T00:12:02.575Z,0
2017-01-05T00:13:16.795Z,0
2017-01-05T00:14:31.685Z,0
2017-01-05T00:15:45.781Z,0
2017-01-05T00:17:00.135Z,0
2017-01-05T00:18:14.367Z,0
2017-01-05T00:19:29.126Z,0
2017-01-05T00:20:44.850Z,0
2017-01-05T00:21:59.099Z,0
2017-01-05T00:23:13.728Z,0
2017-01-05T00:24:28.430Z,0
2017-01-05T00:25:42.525Z,0
2017-01-05T00:26:59.845Z,0
2017-01-05T00:28:14.135Z,0
2017-01-05T00:29:28.839Z,0
2017-01-05T00:30:43.423Z,0
2017-01-05T00:31:57.653Z,0
2017-01-05T00:33:12.198Z,0
2017-01-05T00:34:27.141Z,0
2017-01-05T00:35:41.231Z,0
2017-01-05T00:36:55.542Z,0
2017-01-05T00:38:10.774Z,0
2017-01-05T00:39:26.029Z,0
2017-01-05T00:40:40.100Z,0
2017-01-05T00:41:55.393Z,0
2017-01-05T00:43:10.626Z,0
2017-01-05T00:44:25.342Z,0
2017-01-05T00:45:40.934Z,0
2017-01-05T00:46:55.213Z,0
2017-01-05T00:48:10.593Z,0
2017-01-05T00:49:25.779Z,0
2017-01-05T00:50:39.877Z,0
2017-01-05T00:51:54.454Z,0
2017-01-05T00:53:09.025Z,0
2017-01-05T00:54:23.409Z,0
2017-01-05T00:55:37.510Z,0
2017-01-05T00:56:51.758Z,0
2017-01-05T00:58:07.229Z,0
2017-01-05T00:59:22.036Z,0
2017-01-05T01:00:37.169Z,0
2017-01-05T01:01:51.309Z,0
2017-01-05T01:03:06.946Z,0
2017-01-05T01:04:21.391Z,0
2017-01-05T01:05:36.109Z,0
2017-01-05T01:06:50.716Z,0
2017-01-05T01:08:05.042Z,0
2017-01-05T01:09:19.231Z,0
2017-01-05T01:10:34.235Z,0
2017-01-05T01:11:48.789Z,0
2017-01-05T01:13:03.701Z,0
2017-01-05T01:14:19.577Z,0
2017-01-05T01:15:34.274Z,0
2017-01-05T01:16:48.685Z,0
2017-01-05T01:18:02.940Z,0
2017-01-05T01:19:17.158Z,0
2017-01-05T01:20:32.212Z,0
2017-01-05T01:21:46.330Z,0
2017-01-05T01:23:00.980Z,0
2017-01-05T01:24:16.337Z,0
2017-01-05T01:25:31.158Z,0
2017-01-05T01:26:45.727Z,0
2017-01-05T01:28:00.018Z,0
2017-01-05T01:29:15.637Z,0
2017-01-05T01:30:29.932Z,0
2017-01-05T01:31:44.608Z,0
2017-01-05T01:32:58.899Z,0
2017-01-05T01:34:13.484Z,0
2017-01-05T01:35:28.189Z,0
2017-01-05T01:36:47.420Z,0
2017-01-05T01:38:02.086Z,0
2017-01-05T01:39:16.888Z,0
2017-01-05T01:40:31.153Z,0
2017-01-05T01:41:45.542Z,0
2017-01-05T01:42:59.930Z,0
2017-01-05T01:44:17.428Z,0
2017-01-05T01:45:33.077Z,0
2017-01-05T01:46:47.960Z,0
2017-01-05T01:48:03.016Z,0
2017-01-05T01:49:18.841Z,0
2017-01-05T01:50:33.388Z,0
2017-01-05T01:51:49.000Z,0
2017-01-05T01:53:03.347Z,0
2017-01-05T01:54:17.816Z,0
2017-01-05T01:55:32.590Z,0
2017-01-05T01:56:47.836Z,0
2017-01-05T01:58:02.647Z,0
2017-01-05T01:59:16.748Z,0
2017-01-05T02:00:31.440Z,0
2017-01-05T02:01:45.548Z,0
2017-01-05T02:03:00.808Z,0
2017-01-05T02:04:15.820Z,0
2017-01-05T02:05:29.985Z,0
2017-01-05T02:06:44.531Z,0
2017-01-05T02:07:58.610Z,0
2017-01-05T02:09:12.904Z,0
2017-01-05T02:10:28.858Z,0
2017-01-05T02:11:43.464Z,0
2017-01-05T02:12:58.339Z,0
2017-01-05T02:14:14.460Z,0
2017-01-05T02:15:29.185Z,0
2017-01-05T02:16:43.294Z,0
2017-01-05T02:17:57.663Z,0
2017-01-05T02:19:12.079Z,0
2017-01-05T02:20:26.920Z,0
2017-01-05T02:21:41.099Z,0
2017-01-05T02:22:55.927Z,0
2017-01-05T02:24:10.996Z,0
2017-01-05T02:25:26.095Z,0
2017-01-05T02:26:40.193Z,0
2017-01-05T02:27:54.443Z,0
2017-01-05T02:29:08.551Z,0
2017-01-05T02:30:23.086Z,0
2017-01-05T02:31:37.527Z,0
2017-01-05T02:32:51.824Z,0
2017-01-05T02:34:06.410Z,0
2017-01-05T02:35:20.699Z,0
2017-01-05T02:36:36.574Z,0
2017-01-05T02:37:52.050Z,0
2017-01-05T02:39:06.120Z,0
2017-01-05T02:40:20.385Z,0
2017-01-05T02:41:35.023Z,0
2017-01-05T02:42:50.171Z,0
2017-01-05T02:44:04.595Z,0
2017-01-05T02:45:18.875Z,0
2017-01-05T02:46:35.636Z,0
2017-01-05T02:47:49.918Z,0
2017-01-05T02:49:04.054Z,0
2017-01-05T02:50:18.597Z,0
2017-01-05T02:51:33.665Z,0
2017-01-05T02:52:47.935Z,0
2017-01-05T02:54:02.495Z,0
2017-01-05T02:55:18.011Z,0
2017-01-05T02:56:32.859Z,0
2017-01-05T02:57:46.925Z,0
2017-01-05T02:59:01.200Z,0
2017-01-05T03:00:15.296Z,0
2017-01-05T03:01:32.423Z,0
2017-01-05T03:02:46.834Z,0
2017-01-05T03:04:01.175Z,0
2017-01-05T03:05:15.281Z,0
2017-01-05T03:06:30.103Z,0
2017-01-05T03:07:44.379Z,0
2017-01-05T03:08:59.479Z,0
2017-01-05T03:10:13.569Z,0
2017-01-05T03:11:28.111Z,0
2017-01-05T03:12:43.271Z,0
2017-01-05T03:13:57.515Z,0
2017-01-05T03:15:12.348Z,0
2017-01-05T03:16:26.666Z,0
2017-01-05T03:17:40.788Z,0
2017-01-05T03:18:55.523Z,0
2017-01-05T03:20:10.221Z,0
2017-01-05T03:21:25.220Z,0
2017-01-05T03:22:39.500Z,0
2017-01-05T03:23:53.600Z,0
2017-01-05T03:25:08.797Z,0
2017-01-05T03:26:22.866Z,0
2017-01-05T03:27:38.298Z,0
2017-01-05T03:28:52.551Z,0
2017-01-05T03:30:07.128Z,0
2017-01-05T03:31:21.443Z,0
2017-01-05T03:32:36.452Z,0
2017-01-05T03:33:51.061Z,0
2017-01-05T03:35:05.178Z,0
2017-01-05T03:36:19.432Z,0
2017-01-05T03:37:33.575Z,0
2017-01-05T03:38:48.020Z,0
2017-01-05T03:40:02.438Z,0
2017-01-05T03:41:17.250Z,0
2017-01-05T03:42:31.378Z,0
2017-01-05T03:43:46.199Z,0
2017-01-05T03:45:00.943Z,0
2017-01-05T03:46:15.499Z,0
2017-01-05T03:47:29.644Z,0
2017-01-05T03:48:44.386Z,0
2017-01-05T03:49:58.912Z,0
2017-01-05T03:51:13.792Z,0
2017-01-05T03:52:28.154Z,0
2017-01-05T03:53:42.501Z,0
2017-01-05T03:54:56.550Z,0
2017-01-05T03:56:11.735Z,0
2017-01-05T03:57:25.882Z,0
2017-01-05T03:58:40.944Z,0
2017-01-05T03:59:55.571Z,0
2017-01-05T04:01:09.820Z,0
2017-01-05T04:02:24.011Z,0
2017-01-05T04:03:39.365Z,0
2017-01-05T04:04:53.771Z,0
2017-01-05T04:06:12.092Z,0
2017-01-05T04:07:31.779Z,0
2017-01-05T04:08:53.572Z,0
2017-01-05T04:10:10.062Z,0
2017-01-05T04:11:28.354Z,0
2017-01-05T04:12:44.955Z,0
2017-01-05T04:13:59.559Z,0
2017-01-05T04:15:14.329Z,0
2017-01-05T04:16:28.731Z,0
2017-01-05T04:17:43.447Z,0
2017-01-05T04:19:00.578Z,0
2017-01-05T04:20:15.737Z,0
2017-01-05T04:21:29.973Z,0
2017-01-05T04:22:45.913Z,0
2017-01-05T04:24:00.697Z,0
2017-01-05T04:25:14.833Z,0
2017-01-05T04:26:29.240Z,0
2017-01-05T04:27:43.842Z,0
2017-01-05T04:28:58.440Z,0
2017-01-05T04:30:12.528Z,0
2017-01-05T04:31:27.245Z,0
2017-01-05T04:32:41.509Z,0
2017-01-05T04:33:55.927Z,0
2017-01-05T04:35:10.887Z,0
2017-01-05T04:36:25.142Z,0
2017-01-05T04:37:39.681Z,0
2017-01-05T04:38:54.533Z,0
2017-01-05T04:40:09.868Z,0
2017-01-05T04:41:24.435Z,0
2017-01-05T04:42:38.547Z,0
2017-01-05T04:43:52.824Z,0
2017-01-05T04:45:07.378Z,0
2017-01-05T04:46:22.099Z,0
2017-01-05T04:47:37.573Z,0
2017-01-05T04:48:52.696Z,0
2017-01-05T04:50:07.409Z,0
2017-01-05T04:51:22.143Z,0
2017-01-05T04:52:36.907Z,0
2017-01-05T04:53:51.274Z,0
2017-01-05T04:55:05.574Z,0
2017-01-05T04:56:20.109Z,0
2017-01-05T04:57:34.450Z,0
2017-01-05T04:58:49.499Z,0
2017-01-05T05:00:04.072Z,0
2017-01-05T05:01:18.169Z,0
2017-01-05T05:02:33.473Z,0
2017-01-05T05:03:48.295Z,0
2017-01-05T05:05:03.042Z,0
2017-01-05T05:06:17.879Z,0
2017-01-05T05:07:32.103Z,0
2017-01-05T05:08:46.185Z,0
2017-01-05T05:10:01.066Z,0
2017-01-05T05:11:15.149Z,0
2017-01-05T05:12:30.198Z,0
2017-01-05T05:13:44.778Z,0
2017-01-05T05:14:59.180Z,0
2017-01-05T05:16:14.431Z,0
2017-01-05T05:17:29.177Z,0
2017-01-05T05:18:43.561Z,0
2017-01-05T05:19:57.897Z,0
2017-01-05T05:21:12.471Z,0
2017-01-05T05:22:27.282Z,0
2017-01-05T05:23:41.802Z,0
2017-01-05T05:24:56.931Z,0
2017-01-05T05:26:11.062Z,0
2017-01-05T05:27:25.326Z,0
2017-01-05T05:28:39.569Z,0
2017-01-05T05:29:54.337Z,0
2017-01-05T05:31:11.380Z,0
2017-01-05T05:32:26.225Z,0
2017-01-05T05:33:40.921Z,0
2017-01-05T05:34:55.079Z,0
2017-01-05T05:36:11.759Z,0
2017-01-05T05:37:26.169Z,0
2017-01-05T05:38:40.987Z,0
2017-01-05T05:39:55.223Z,0
2017-01-05T05:41:09.730Z,0
2017-01-05T05:42:23.839Z,0
2017-01-05T05:43:38.469Z,0
2017-01-05T05:44:53.023Z,0
2017-01-05T05:46:07.487Z,0
2017-01-05T05:47:21.612Z,0
2017-01-05T05:48:36.465Z,0
2017-01-05T05:49:51.399Z,0
2017-01-05T05:51:06.693Z,0
2017-01-05T05:52:21.373Z,0
2017-01-05T05:53:36.087Z,0
2017-01-05T05:54:50.201Z,0
2017-01-05T05:56:04.849Z,0
2017-01-05T05:57:19.617Z,0
2017-01-05T05:58:33.901Z,0
2017-01-05T05:59:48.756Z,0
2017-01-05T06:01:03.063Z,0
2017-01-05T06:02:17.472Z,0
2017-01-05T06:03:32.213Z,0
2017-01-05T06:04:46.761Z,0
2017-01-05T06:06:01.075Z,0
2017-01-05T06:07:15.638Z,0
2017-01-05T06:08:30.180Z,0
2017-01-05T06:09:44.859Z,0
2017-01-05T06:11:00.436Z,0
2017-01-05T06:12:14.693Z,0
2017-01-05T06:13:28.807Z,0
2017-01-05T06:14:43.812Z,0
2017-01-05T06:15:58.400Z,0
2017-01-05T06:17:12.764Z,0
2017-01-05T06:18:26.887Z,0
2017-01-05T06:19:41.634Z,0
2017-01-05T06:20:56.092Z,0
2017-01-05T06:22:10.899Z,0
2017-01-05T06:23:25.000Z,0
2017-01-05T06:24:39.438Z,0
2017-01-05T06:25:53.536Z,0
2017-01-05T06:27:09.939Z,0
2017-01-05T06:28:24.643Z,0
2017-01-05T06:29:39.217Z,0
2017-01-05T06:30:53.539Z,0
2017-01-05T06:32:07.724Z,0
2017-01-05T06:33:22.336Z,0
2017-01-05T06:34:36.428Z,0
2017-01-05T06:35:51.136Z,0
2017-01-05T06:37:05.807Z,0
2017-01-05T06:38:20.516Z,0
2017-01-05T06:39:35.569Z,0
2017-01-05T06:40:50.118Z,0
2017-01-05T06:42:05.204Z,0
2017-01-05T06:43:21.324Z,0
2017-01-05T06:44:35.590Z,0
2017-01-05T06:45:49.976Z,0
2017-01-05T06:47:04.328Z,0
2017-01-05T06:48:18.424Z,0
2017-01-05T06:49:33.202Z,0
2017-01-05T06:50:47.316Z,0
2017-01-05T06:52:02.221Z,0
2017-01-05T06:53:19.301Z,0
2017-01-05T06:54:33.407Z,0
2017-01-05T06:55:47.761Z,0
2017-01-05T06:57:01.954Z,0
2017-01-05T06:58:17.012Z,0
2017-01-05T06:59:31.605Z,0
2017-01-05T07:00:45.870Z,0
2017-01-05T07:02:00.372Z,0
2017-01-05T07:03:15.217Z,0
2017-01-05T07:04:29.619Z,0
2017-01-05T07:05:44.350Z,0
2017-01-05T07:06:58.942Z,0
2017-01-05T07:08:13.809Z,0
2017-01-05T07:09:27.879Z,0
2017-01-05T07:10:43.851Z,0
2017-01-05T07:11:58.019Z,0
2017-01-05T07:13:14.261Z,0
2017-01-05T07:14:28.607Z,0
2017-01-05T07:15:43.170Z,0
2017-01-05T07:16:58.174Z,0
2017-01-05T07:18:12.752Z,0
2017-01-05T07:19:27.005Z,0
2017-01-05T07:20:41.722Z,0
2017-01-05T07:21:56.492Z,5
2017-01-05T07:23:10.983Z,5
2017-01-05T07:24:25.231Z,5
2017-01-05T07:25:40.259Z,5
2017-01-05T07:26:54.884Z,5
2017-01-05T07:28:09.573Z,5
2017-01-05T07:29:24.114Z,5
2017-01-05T07:30:38.235Z,5
2017-01-05T07:31:52.498Z,10
2017-01-05T07:33:07.478Z,10
2017-01-05T07:34:22.727Z,10
2017-01-05T07:35:38.072Z,10
2017-01-05T07:36:52.390Z,10
2017-01-05T07:38:06.994Z,10
2017-01-05T07:39:21.422Z,15
2017-01-05T07:40:35.990Z,15
2017-01-05T07:42:16.181Z,15
2017-01-05T07:43:32.148Z,15
2017-01-05T07:44:46.518Z,15
2017-01-05T07:46:06.283Z,20
2017-01-05T07:47:20.861Z,20
2017-01-05T07:48:35.108Z,20
2017-01-05T07:49:49.440Z,20
2017-01-05T07:51:05.444Z,20
2017-01-05T07:52:19.565Z,20
2017-01-05T07:53:34.209Z,20
2017-01-05T07:54:48.784Z,25
2017-01-05T07:56:03.053Z,25
2017-01-05T07:57:17.193Z,25
2017-01-05T07:58:31.520Z,25
2017-01-05T07:59:46.344Z,25
2017-01-05T08:01:00.674Z,30
2017-01-05T08:02:15.246Z,30
2017-01-05T08:03:31.026Z,30
2017-01-05T08:04:45.568Z,30
2017-01-05T08:06:00.624Z,30
2017-01-05T08:07:14.718Z,35
2017-01-05T08:08:29.294Z,35
2017-01-05T08:09:43.844Z,35
2017-01-05T08:11:01.744Z,35
2017-01-05T08:12:16.698Z,35
2017-01-05T08:13:31.303Z,40
2017-01-05T08:14:45.707Z,40
2017-01-05T08:15:59.815Z,40
2017-01-05T08:17:14.539Z,40
2017-01-05T08:18:28.821Z,40
2017-01-05T08:19:43.118Z,40
2017-01-05T08:20:57.792Z,45
2017-01-05T08:22:12.411Z,45
2017-01-05T08:23:27.078Z,45
2017-01-05T08:24:41.675Z,45
2017-01-05T08:25:56.816Z,45
2017-01-05T08:27:11.727Z,45
2017-01-05T08:28:25.888Z,50
2017-01-05T08:29:40.193Z,50
2017-01-05T08:30:54.620Z,50
2017-01-05T08:32:09.529Z,50
2017-01-05T08:33:24.327Z,50
2017-01-05T08:34:39.159Z,50
2017-01-05T08:35:53.778Z,55
2017-01-05T08:37:08.085Z,55
2017-01-05T08:38:22.664Z,55
2017-01-05T08:39:37.574Z,55
2017-01-05T08:40:52.128Z,55
2017-01-05T08:42:06.896Z,55
2017-01-05T08:43:21.326Z,60
2017-01-05T08:44:36.660Z,60
2017-01-05T08:45:51.011Z,60
2017-01-05T08:47:05.829Z,60
2017-01-05T08:48:21.496Z,60
2017-01-05T08:49:37.269Z,60
2017-01-05T08:50:51.554Z,60
2017-01-05T08:52:06.460Z,65
2017-01-05T08:53:47.243Z,65
2017-01-05T08:55:01.496Z,65
2017-01-05T08:56:17.154Z,65
2017-01-05T08:57:31.884Z,65
2017-01-05T08:58:46.436Z,65
2017-01-05T09:00:01.195Z,65
2017-01-05T09:01:41.457Z,70
2017-01-05T09:02:55.708Z,70
2017-01-05T09:04:10.259Z,70
2017-01-05T09:05:25.055Z,70
2017-01-05T09:06:39.641Z,70
2017-01-05T09:07:53.929Z,75
2017-01-05T09:09:08.260Z,70
2017-01-05T09:10:23.094Z,75
2017-01-05T09:11:37.757Z,75
2017-01-05T09:12:52.600Z,75
2017-01-05T09:14:06.729Z,75
2017-01-05T09:15:22.452Z,75
2017-01-05T09:16:36.628Z,80
2017-01-05T09:17:51.364Z,80
2017-01-05T09:19:06.163Z,80
2017-01-05T09:20:21.043Z,75
2017-01-05T09:21:35.752Z,75
2017-01-05T09:23:18.033Z,80
2017-01-05T09:24:32.875Z,80
2017-01-05T09:25:48.866Z,80
2017-01-05T09:27:03.142Z,80
2017-01-05T09:28:17.540Z,110
2017-01-05T09:29:34.083Z,115
2017-01-05T09:30:49.260Z,80
2017-01-05T09:32:04.188Z,80
2017-01-05T09:33:18.779Z,80
2017-01-05T09:34:33.358Z,80
2017-01-05T09:35:49.242Z,85
2017-01-05T09:37:03.705Z,85
2017-01-05T09:38:18.074Z,85
2017-01-05T09:39:33.047Z,85
2017-01-05T09:41:00.739Z,85
2017-01-05T09:42:16.583Z,85
2017-01-05T09:43:31.309Z,85
2017-01-05T09:44:45.471Z,85
2017-01-05T09:46:01.104Z,85
2017-01-05T09:47:16.317Z,85
2017-01-05T09:48:30.558Z,90
2017-01-05T09:49:45.780Z,90
2017-01-05T09:51:00.052Z,90
2017-01-05T09:52:14.400Z,90
2017-01-05T09:53:28.800Z,90
2017-01-05T09:54:43.281Z,95
2017-01-05T09:55:58.415Z,95
2017-01-05T09:57:12.715Z,110
2017-01-05T09:58:26.817Z,90
2017-01-05T09:59:41.847Z,95
2017-01-05T10:00:56.101Z,85
2017-01-05T10:02:10.361Z,85
2017-01-05T10:03:24.511Z,95
2017-01-05T10:04:38.782Z,90
2017-01-05T10:05:53.662Z,90
2017-01-05T10:07:08.063Z,95
2017-01-05T10:08:22.140Z,90
2017-01-05T10:09:36.872Z,95
2017-01-05T10:10:50.974Z,95
2017-01-05T10:12:05.842Z,90
2017-01-05T10:13:20.091Z,90
2017-01-05T10:14:48.378Z,110
2017-01-05T10:16:03.508Z,100
2017-01-05T10:17:17.615Z,95
2017-01-05T10:18:32.340Z,90
2017-01-05T10:19:46.589Z,90
2017-01-05T10:21:01.979Z,90
2017-01-05T10:22:16.681Z,90
2017-01-05T10:23:30.962Z,95
2017-01-05T10:24:46.078Z,95
2017-01-05T10:26:01.908Z,100
2017-01-05T10:27:17.202Z,95
2017-01-05T10:28:31.991Z,95
2017-01-05T10:29:46.122Z,95
2017-01-05T10:31:01.060Z,90
2017-01-05T10:32:15.402Z,90
2017-01-05T10:33:47.402Z,90
2017-01-05T10:35:01.684Z,95
2017-01-05T10:36:15.965Z,90
2017-01-05T10:37:30.955Z,90
2017-01-05T10:38:45.417Z,90
2017-01-05T10:39:59.753Z,85
2017-01-05T10:41:14.854Z,85
2017-01-05T10:42:29.168Z,85
2017-01-05T10:43:43.272Z,80
2017-01-05T10:44:58.313Z,80
2017-01-05T10:46:13.185Z,80
2017-01-05T10:47:29.718Z,85
2017-01-05T10:48:44.554Z,90
2017-01-05T10:49:59.426Z,95
2017-01-05T10:51:14.882Z,90
2017-01-05T10:52:30.242Z,90
2017-01-05T10:53:44.684Z,90
2017-01-05T10:54:59.556Z,90
2017-01-05T10:56:14.179Z,85
2017-01-05T10:57:29.462Z,80
2017-01-05T10:58:43.701Z,80
2017-01-05T10:59:58.298Z,85
2017-01-05T11:01:14.374Z,85
2017-01-05T11:02:29.233Z,85
2017-01-05T11:03:43.662Z,85
2017-01-05T11:04:57.949Z,90
2017-01-05T11:06:14.246Z,95
2017-01-05T11:07:28.541Z,90
2017-01-05T11:08:42.676Z,85
2017-01-05T11:09:57.306Z,85
2017-01-05T11:11:12.721Z,85
2017-01-05T11:12:26.983Z,85
2017-01-05T11:13:42.246Z,85
2017-01-05T11:14:56.637Z,85
2017-01-05T11:16:11.136Z,90
2017-01-05T11:17:26.062Z,90
2017-01-05T11:18:40.611Z,90
2017-01-05T11:19:55.357Z,95
2017-01-05T11:21:10.771Z,95
2017-01-05T11:22:25.663Z,100
2017-01-05T11:23:40.234Z,100
2017-01-05T11:25:12.356Z,100
2017-01-05T11:26:27.639Z,100
2017-01-05T11:27:43.710Z,105
2017-01-05T11:28:58.142Z,105
2017-01-05T11:30:12.601Z,105
2017-01-05T11:31:27.312Z,105
2017-01-05T11:32:41.535Z,95
2017-01-05T11:33:56.260Z,95
2017-01-05T11:35:10.447Z,90
2017-01-05T11:36:25.227Z,90
2017-01-05T11:37:39.439Z,80
2017-01-05T11:38:54.255Z,90
2017-01-05T11:40:08.403Z,90
2017-01-05T11:41:23.239Z,90
2017-01-05T11:42:37.413Z,95
2017-01-05T11:43:52.188Z,90
2017-01-05T11:45:07.795Z,90
2017-01-05T11:46:23.084Z,95
2017-01-05T11:47:39.230Z,90
2017-01-05T11:48:53.859Z,90
2017-01-05T11:50:07.964Z,95
2017-01-05T11:51:22.711Z,100
2017-01-05T11:52:37.548Z,100
2017-01-05T11:53:52.734Z,100
2017-01-05T11:55:07.723Z,100
2017-01-05T11:56:21.816Z,95
2017-01-05T11:57:37.191Z,95
2017-01-05T11:58:51.752Z,95
2017-01-05T12:00:06.212Z,100
2017-01-05T12:01:21.180Z,105
2017-01-05T12:02:35.527Z,100
2017-01-05T12:03:50.632Z,105
2017-01-05T12:05:07.674Z,100
2017-01-05T12:06:22.245Z,105
2017-01-05T12:07:36.977Z,105
2017-01-05T12:08:51.147Z,105
2017-01-05T12:10:05.892Z,100
2017-01-05T12:11:20.001Z,95
2017-01-05T12:12:35.208Z,90
2017-01-05T12:13:50.145Z,85
2017-01-05T12:15:05.442Z,90
2017-01-05T12:16:20.105Z,90
2017-01-05T12:17:34.354Z,90
2017-01-05T12:18:49.024Z,95
2017-01-05T12:20:04.069Z,95
2017-01-05T12:21:18.643Z,95
2017-01-05T12:22:33.942Z,95
2017-01-05T12:23:49.493Z,95
2017-01-05T12:25:04.370Z,95
2017-01-05T12:26:18.802Z,95
2017-01-05T12:27:34.193Z,95
2017-01-05T12:28:48.514Z,95
2017-01-05T12:30:03.896Z,95
2017-01-05T12:31:18.023Z,95
2017-01-05T12:32:33.070Z,95
2017-01-05T12:33:48.545Z,95
2017-01-05T12:35:03.110Z,100
2017-01-05T12:36:17.265Z,105
2017-01-05T12:37:32.630Z,95
2017-01-05T12:38:48.967Z,95
2017-01-05T12:40:03.284Z,95
2017-01-05T12:41:17.481Z,95
2017-01-05T12:42:32.288Z,90
2017-01-05T12:43:46.638Z,85
2017-01-05T12:45:02.110Z,85
2017-01-05T12:46:16.795Z,90
2017-01-05T12:47:31.574Z,95
2017-01-05T12:48:45.949Z,95
2017-01-05T12:50:00.599Z,95
2017-01-05T12:51:15.606Z,95
2017-01-05T12:52:29.681Z,95
2017-01-05T12:53:45.094Z,90
2017-01-05T12:54:59.409Z,95
2017-01-05T12:56:13.979Z,90
2017-01-05T12:57:29.015Z,90
2017-01-05T12:58:43.680Z,90
2017-01-05T12:59:59.729Z,90
2017-01-05T13:01:14.004Z,90
2017-01-05T13:02:29.194Z,90
2017-01-05T13:03:44.663Z,90
2017-01-05T13:04:59.356Z,75
2017-01-05T13:06:14.830Z,75
2017-01-05T13:07:29.606Z,75
2017-01-05T13:08:44.985Z,80
2017-01-05T13:10:01.513Z,75
2017-01-05T13:11:15.825Z,75
2017-01-05T13:12:29.955Z,80
2017-01-05T13:13:44.255Z,80
2017-01-05T13:14:59.689Z,80
2017-01-05T13:16:14.261Z,80
2017-01-05T13:17:28.417Z,85
2017-01-05T13:18:43.211Z,80
2017-01-05T13:20:02.686Z,80
2017-01-05T13:21:17.635Z,80
2017-01-05T13:22:35.362Z,80
2017-01-05T13:23:49.500Z,80
2017-01-05T13:25:04.495Z,80
2017-01-05T13:26:18.610Z,90
2017-01-05T13:27:33.346Z,95
2017-01-05T13:28:48.229Z,90
2017-01-05T13:30:02.528Z,90
2017-01-05T13:31:17.274Z,90
2017-01-05T13:33:23.507Z,85
2017-01-05T13:34:38.097Z,85
2017-01-05T13:35:53.472Z,90
2017-01-05T13:37:07.902Z,90
2017-01-05T13:38:21.997Z,90
2017-01-05T13:39:36.319Z,85
2017-01-05T13:40:50.885Z,85
2017-01-05T13:42:06.129Z,85
2017-01-05T13:43:22.250Z,85
2017-01-05T13:44:36.545Z,85
2017-01-05T13:45:51.641Z,85
2017-01-05T13:47:07.669Z,85
2017-01-05T13:48:22.437Z,80
2017-01-05T13:49:37.457Z,80
2017-01-05T13:50:52.451Z,85
2017-01-05T13:52:07.027Z,85
2017-01-05T13:53:22.271Z,75
2017-01-05T13:54:36.425Z,75
2017-01-05T13:55:50.711Z,80
2017-01-05T13:57:04.839Z,75
2017-01-05T13:58:20.396Z,80
2017-01-05T13:59:34.979Z,80
2017-01-05T14:00:49.371Z,75
2017-01-05T14:02:03.511Z,80
2017-01-05T14:03:17.791Z,80
2017-01-05T14:04:32.388Z,75
2017-01-05T14:05:46.985Z,75
2017-01-05T14:07:01.563Z,75
2017-01-05T14:08:15.827Z,75
2017-01-05T14:09:30.412Z,75
2017-01-05T14:10:44.744Z,75
2017-01-05T14:11:59.624Z,70
2017-01-05T14:13:13.903Z,70
2017-01-05T14:14:28.445Z,70
2017-01-05T14:15:42.686Z,70
2017-01-05T14:16:56.857Z,65
2017-01-05T14:18:11.441Z,65
2017-01-05T14:19:26.039Z,65
2017-01-05T14:20:40.789Z,65
2017-01-05T14:21:54.991Z,65
2017-01-05T14:23:09.347Z,65
2017-01-05T14:24:43.208Z,60
2017-01-05T14:25:57.504Z,55
2017-01-05T14:27:27.688Z,60
2017-01-05T14:28:42.531Z,55
2017-01-05T14:29:58.767Z,55
2017-01-05T14:31:13.636Z,55
2017-01-05T14:32:27.973Z,55
2017-01-05T14:33:42.312Z,55
2017-01-05T14:34:56.566Z,50
2017-01-05T14:36:12.053Z,50
2017-01-05T14:37:26.367Z,50
2017-01-05T14:38:40.648Z,50
2017-01-05T14:39:54.943Z,50
2017-01-05T14:41:11.577Z,50
2017-01-05T14:42:26.584Z,45
2017-01-05T14:43:51.199Z,45
2017-01-05T14:45:06.401Z,45
2017-01-05T14:46:21.046Z,45
2017-01-05T14:47:36.856Z,40
2017-01-05T14:48:51.267Z,40
2017-01-05T14:50:07.156Z,40
2017-01-05T14:51:21.916Z,40
2017-01-05T14:52:36.131Z,40
2017-01-05T14:53:50.641Z,35
2017-01-05T14:55:05.267Z,35
2017-01-05T14:56:19.587Z,35
2017-01-05T14:57:33.744Z,35
2017-01-05T14:58:49.214Z,35
2017-01-05T15:00:03.395Z,30
2017-01-05T15:01:18.328Z,25
2017-01-05T15:02:32.698Z,25
2017-01-05T15:03:47.525Z,25
2017-01-05T15:05:02.581Z,25
2017-01-05T15:06:16.883Z,25
2017-01-05T15:07:37.203Z,25
2017-01-05T15:08:51.765Z,25
2017-01-05T15:10:06.004Z,25
2017-01-05T15:11:20.266Z,20
2017-01-05T15:12:35.754Z,20
2017-01-05T15:13:50.972Z,20
2017-01-05T15:15:05.159Z,20
2017-01-05T15:16:19.948Z,20
2017-01-05T15:17:34.559Z,15
2017-01-05T15:18:49.400Z,15
2017-01-05T15:20:04.001Z,15
2017-01-05T15:21:18.820Z,15
2017-01-05T15:22:34.175Z,10
2017-01-05T15:23:49.464Z,10
2017-01-05T15:25:03.614Z,10
2017-01-05T15:26:18.177Z,10
2017-01-05T15:27:32.382Z,10
2017-01-05T15:28:46.718Z,10
2017-01-05T15:30:01.164Z,5
2017-01-05T15:31:15.649Z,5
2017-01-05T15:32:30.473Z,5
2017-01-05T15:33:44.856Z,5
2017-01-05T15:34:59.428Z,5
2017-01-05T15:36:14.727Z,5
2017-01-05T15:37:29.446Z,5
2017-01-05T15:38:44.215Z,5
2017-01-05T15:39:58.989Z,0
2017-01-05T15:41:13.989Z,0
2017-01-05T15:42:28.726Z,0
2017-01-05T15:43:53.895Z,0
2017-01-05T15:45:10.231Z,0
2017-01-05T15:46:25.026Z,0
2017-01-05T15:47:39.155Z,0
2017-01-05T15:48:54.165Z,0
2017-01-05T15:50:08.366Z,0
2017-01-05T15:51:23.169Z,0
2017-01-05T15:52:37.776Z,0
2017-01-05T15:53:54.286Z,0
2017-01-05T15:55:08.680Z,0
2017-01-05T15:56:35.920Z,0
2017-01-05T15:57:53.597Z,0
2017-01-05T15:59:11.973Z,0
2017-01-05T16:00:26.299Z,0
2017-01-05T16:01:41.884Z,0
2017-01-05T16:02:56.120Z,0
2017-01-05T16:04:10.724Z,0
2017-01-05T16:05:25.505Z,0
2017-01-05T16:06:40.566Z,0
2017-01-05T16:07:54.996Z,0
2017-01-05T16:09:10.370Z,0
2017-01-05T16:10:25.204Z,0
2017-01-05T16:11:40.454Z,0
2017-01-05T16:12:55.466Z,0
2017-01-05T16:14:12.104Z,0
2017-01-05T16:15:26.895Z,0
2017-01-05T16:16:41.611Z,0
2017-01-05T16:18:06.199Z,0
2017-01-05T16:19:22.031Z,0
2017-01-05T16:20:36.167Z,0
2017-01-05T16:21:50.489Z,0
2017-01-05T16:23:04.627Z,0
2017-01-05T16:24:20.020Z,0
2017-01-05T16:25:34.655Z,0
2017-01-05T16:26:49.940Z,0
2017-01-05T16:28:04.514Z,0
2017-01-05T16:29:20.120Z,0
2017-01-05T16:30:34.350Z,0
2017-01-05T16:31:48.548Z,0
2017-01-05T16:33:02.899Z,0
2017-01-05T16:34:17.606Z,0
2017-01-05T16:35:36.818Z,0
2017-01-05T16:36:53.251Z,0
2017-01-05T16:38:07.792Z,0
2017-01-05T16:39:22.804Z,0
2017-01-05T16:40:37.937Z,0
2017-01-05T16:41:54.585Z,0
2017-01-05T16:43:09.563Z,0
2017-01-05T16:44:23.742Z,0
2017-01-05T16:45:38.086Z,0
2017-01-05T16:46:53.161Z,0
2017-01-05T16:48:07.986Z,0
2017-01-05T16:49:22.792Z,0
2017-01-05T16:50:47.571Z,0
2017-01-05T16:52:02.311Z,0
2017-01-05T16:53:16.462Z,0
2017-01-05T16:54:40.814Z,0
2017-01-05T16:55:55.951Z,0
2017-01-05T16:57:10.863Z,0
2017-01-05T16:58:25.132Z,0
2017-01-05T16:59:39.431Z,0
2017-01-05T17:00:53.810Z,0
2017-01-05T17:02:08.774Z,0
2017-01-05T17:03:23.377Z,0
2017-01-05T17:04:38.139Z,0
2017-01-05T17:05:53.640Z,0
2017-01-05T17:07:07.828Z,0
2017-01-05T17:08:22.870Z,0
2017-01-05T17:09:37.266Z,0
2017-01-05T17:10:51.619Z,0
2017-01-05T17:12:06.871Z,0
2017-01-05T17:13:21.632Z,0
2017-01-05T17:14:36.101Z,0
2017-01-05T17:15:50.361Z,0
2017-01-05T17:17:08.411Z,0
2017-01-05T17:18:23.048Z,0
2017-01-05T17:19:40.293Z,0
2017-01-05T17:20:54.920Z,0
2017-01-05T17:22:09.182Z,0
2017-01-05T17:23:33.259Z,0
2017-01-05T17:24:50.164Z,0
2017-01-05T17:26:04.692Z,0
2017-01-05T17:27:20.301Z,0
2017-01-05T17:28:35.272Z,0
2017-01-05T17:29:50.707Z,0
2017-01-05T17:31:05.071Z,0
2017-01-05T17:32:19.546Z,0
2017-01-05T17:33:33.911Z,0
2017-01-05T17:34:48.272Z,0
2017-01-05T17:36:03.100Z,0
2017-01-05T17:37:17.236Z,0
2017-01-05T17:38:33.045Z,0
2017-01-05T17:39:47.382Z,0
2017-01-05T17:41:01.510Z,0
2017-01-05T17:42:16.132Z,0
2017-01-05T17:43:30.435Z,0
2017-01-05T17:44:45.669Z,0
2017-01-05T17:46:00.652Z,0
2017-01-05T17:47:15.325Z,0
2017-01-05T17:48:30.294Z,0
2017-01-05T17:49:44.663Z,0
2017-01-05T17:50:59.100Z,0
2017-01-05T17:52:14.327Z,0
2017-01-05T17:53:28.952Z,0
2017-01-05T17:54:43.376Z,0
2017-01-05T17:55:57.527Z,0
2017-01-05T17:57:13.073Z,0
2017-01-05T17:58:27.342Z,0
2017-01-05T17:59:41.609Z,0
2017-01-05T18:00:55.806Z,0
2017-01-05T18:02:10.561Z,0
2017-01-05T18:03:25.619Z,0
2017-01-05T18:04:40.362Z,0
2017-01-05T18:05:55.063Z,0
2017-01-05T18:07:09.871Z,0
2017-01-05T18:08:26.179Z,0
2017-01-05T18:09:40.815Z,0
2017-01-05T18:10:55.107Z,0
2017-01-05T18:12:11.285Z,0
2017-01-05T18:13:25.836Z,0